Burlington, VT (05401)

1:23 PM EDT on April 24, 2017 (GMT -0400)
Old North End | | Change Station

Elev 226 ft 44.49 °N, 73.22 °W | Updated 1 second ago

Clear
Clear
46.6 °F
Feels Like 47 °F
N
1.1
Wind Variable Wind from NW
Gusts 2.5 mph

Today
High -- | Low -- °F
--% Chance of Precip.
Yesterday
High -- | Low -- °F
Precip. -- in
Pressure 30.27 in
Visibility 10.0 miles
Clouds Few 20000 ft
Windchill 47 °F
Dew Point 28 °F
Humidity 47%
Rainfall 0.00 in
Snow Depth Not available.
5:53 AM 7:49 PM
Waning Crescent, 5% visible
METAR KBTV 241654Z 32012KT 10SM FEW200 08/M02 A3027 RMK AO2 SLP251 T00831017
Pressure 30.27 in
Visibility 10.0 miles
Clouds Few 20000 ft
Windchill 47 °F
Dew Point 28 °F
Humidity 47%
Rainfall 0.00 in
Snow Depth Not available.
5:53 AM 7:49 PM
Waning Crescent, 5% visible
METAR KBTV 241654Z 32012KT 10SM FEW200 08/M02 A3027 RMK AO2 SLP251 T00831017

Get Severe Weather Alerts

Thanks for signing up!

Be on the lookout for a verification email in your inbox.

You'll start receiving the daily forecast at 8 AM.

×

10-Day Weather Forecast

Almanac

Astronomy

Apr. 24, 2017 Rise Set
Actual Time
Civil Twilight
Nautical Twilight
Astronomical Twilight
Moon
Length of Visible Light
Length of Day
Tomorrow will be .
, % of the Moon is Illuminated

Today's Extremes

State Highs State Lows

Community

WunderPhotos

WunderBlog® & News

Nearby

Air Quality

  Air Quality AQ Index Pollutant
Not available.

Snow Depth

Station Depth Elevation

Earthquake Activity

City Distance Mag. Time & Date
Minimum magnitude displayed is 2.5.

Coastal Water Temperatures

Place Temperature

Stations

Nearby Weather Stations

Station Location Temp. Windchill Dew Point Humidity Wind Precip. Elev Updated Type
                   

Watches & Warnings

There are currently no watches in effect.